Airfield :
LOGIN :

Register | Disclaimer

   EN    FR    IT 

 










Legend :    VFR   Marginal VFR   IFR   Intensive IFR   Very Intensive IFR
Visi :
Ceiling :
>= 8 km
>= 3000ft
5 to 8 km
1000 to 3000 ft
1500m to 5 km
500 to 1000 ft
800 to 1500m
200 to 500 ft
< 800m
< 200 ft
Symbols :   Thunderstorms  Fog  Heavy snow  Heavy precipitations  Wind > 20 kt
SIGMETs :     Misc.  Thunderstorms  Icing  Turbulence  Mountain Waves  Volcanic Ashes






- Airport Elevation : 156 ft
- IATA code : LCC


LIBN - Lecce Galatine (military)

CURRENT METAR :
  • 192255Z 30007KT CAVOK 09/08 Q1010 RMK SKC VIS MIN 9999 WIND THR14 30007KT WIND THR32 30007KT BLU

EXPIRED METARs :
  • 192155Z 30005KT CAVOK 10/08 Q1009
  • 192055Z 31010KT CAVOK 12/08 Q1009
  • 191955Z 33011KT CAVOK 13/08 Q1008 RMK SCT SCT060 VIS MIN 9999 WIND THR14 33012KT WIND THR32 33012KT BLU
  • 191855Z 33013KT 9999 BKN040 13/08 Q1008 RMK BKN VIS MIN 9999 WIND THR14 34012KT WIND THR32 34012KT BLU

TAF TAF LIBN
Valid from the 19 at 15:00 until the 20 at 00:00 UTC


191400Z 1915/1924 32018KT 9999 FEW012 SCT020
TEMPO 1915/1917 03014G24KT 5000 RA FEW012TCU SCT015 BKN020



MET'MAP, your aeronautical weather chart ! - Copyright ORBIFLY December 2007 - Disclaimer

ORBIFLY MET'MAP TEAM :

Programming & Development : Alexandra Zaïnal
Original concept : Baudouin d'Aumeries
Technical & hardware support : Manuel Goepfert
Assistance : Marc-Olivier Méhu




SOURCES & CREDITS :

   NOAA